CYPD

Port Hawkesbury Airport

Port Hawkesbury, Nova Scotia, Canada
METAR CYPD 231000Z AUTO 33008KT 310V010 9SM -SN OVC027 M09/M14 A3059 RMK SLP370
Observed Flight Rules
Feb-23 @ 10:00 UTC (26 minutes ago) Marginal Visual Flight Rules
Wind Visibility Clouds Conditions
330° at 8 knots 9 miles
  • Overcast at 2,700' AGL
  • Light Snow
Temperatures Readings
Current -9°C / 16°F
Dewpoint -14°C / 7°F
Humidity 67%
Altimeter 30.59" Hg
Pressure 1037 hPa
Elevation 114
METAR CYPD 231000Z AUTO 33008KT 310V010 9SM -SN OVC027 M09/M14 A3059 RMK SLP370
Observed Flight Rules
Feb-23 @ 10:00 UTC
(26 minutes ago)
MVFR
Wind Visibility
330° at 8 knots 9 miles
Clouds
  • Overcast at 2,700' AGL
Conditions
  • Light Snow
Temperature Dewpoint
-9°C / 16°F -14°C / 7°F
Humidity Altimeter Pressure
67% 30.59" Hg 1037 hPa